createdAt,value
2022-09-07T00:05:02.344Z,14.79
2022-09-07T00:10:10.423Z,14.72
2022-09-07T00:15:17.906Z,14.66
2022-09-07T00:20:26.154Z,14.56
2022-09-07T00:25:33.750Z,14.5
2022-09-07T00:30:41.642Z,14.5
2022-09-07T00:35:49.704Z,14.44
2022-09-07T00:40:56.011Z,14.42
2022-09-07T00:46:04.337Z,14.35
2022-09-07T00:52:43.934Z,14.26
2022-09-07T00:57:50.221Z,14.25
2022-09-07T01:02:58.694Z,14.2
2022-09-07T01:08:06.764Z,14.15
2022-09-07T01:13:13.829Z,14.18
2022-09-07T01:18:21.428Z,14.15
2022-09-07T01:23:28.254Z,14.14
2022-09-07T01:28:36.027Z,14.28
2022-09-07T01:33:45.123Z,14.32
2022-09-07T01:38:53.340Z,14.3
2022-09-07T01:44:01.541Z,14.24
2022-09-07T01:49:08.741Z,14.09
2022-09-07T01:54:17.470Z,14.1
2022-09-07T01:59:26.052Z,14.08
2022-09-07T02:04:34.692Z,14.04
2022-09-07T02:09:42.653Z,13.98
2022-09-07T02:14:50.494Z,13.88
2022-09-07T02:19:58.264Z,13.86
2022-09-07T02:25:05.730Z,13.8
2022-09-07T02:30:14.011Z,13.82
2022-09-07T02:35:21.977Z,13.76
2022-09-07T02:40:29.626Z,13.74
2022-09-07T02:45:37.791Z,13.7
2022-09-07T02:50:44.099Z,13.64
2022-09-07T02:55:51.717Z,13.61
2022-09-07T03:00:59.443Z,13.58
2022-09-07T03:06:08.181Z,13.5
2022-09-07T03:11:16.325Z,13.43
2022-09-07T03:16:23.983Z,13.4
2022-09-07T03:21:32.826Z,13.38
2022-09-07T03:26:39.184Z,13.34
2022-09-07T03:31:46.854Z,13.32
2022-09-07T03:36:55.078Z,13.3
2022-09-07T03:42:02.855Z,13.28
2022-09-07T03:47:10.317Z,13.28
2022-09-07T03:52:18.110Z,13.32
2022-09-07T03:57:24.735Z,13.3
2022-09-07T04:02:32.579Z,13.25
2022-09-07T04:07:39.782Z,13.36
2022-09-07T04:12:47.063Z,13.38
2022-09-07T04:17:54.172Z,13.39
2022-09-07T04:23:02.545Z,13.4
2022-09-07T04:28:09.194Z,13.43
2022-09-07T04:33:16.969Z,13.39
2022-09-07T04:38:25.533Z,13.38
2022-09-07T04:43:33.307Z,13.42
2022-09-07T04:48:40.937Z,13.5
2022-09-07T04:53:48.374Z,13.62
2022-09-07T04:58:57.748Z,13.74
2022-09-07T05:04:04.721Z,13.96
2022-09-07T05:09:12.729Z,14.24
2022-09-07T05:14:19.414Z,14.52
2022-09-07T05:19:26.871Z,14.84
2022-09-07T05:24:36.280Z,15.19
2022-09-07T05:29:44.578Z,15.49
2022-09-07T05:34:52.310Z,16.02
2022-09-07T05:40:00.217Z,16.69
2022-09-07T05:45:08.900Z,17.3
2022-09-07T05:50:16.538Z,17.2
2022-09-07T05:55:24.017Z,16.88
2022-09-07T06:00:32.256Z,16.57
2022-09-07T06:05:40.058Z,16.46
2022-09-07T06:10:47.664Z,16.54
2022-09-07T06:15:55.150Z,16.61
2022-09-07T06:21:02.943Z,16.75
2022-09-07T06:26:10.403Z,17.02
2022-09-07T06:31:18.358Z,17.36
2022-09-07T08:14:21.551Z,21.98
2022-09-07T08:19:29.579Z,22.42
2022-09-07T08:24:36.704Z,22.68
2022-09-07T08:29:44.565Z,23.28
2022-09-07T08:34:52.013Z,23.26
2022-09-07T08:39:58.969Z,23.3
2022-09-07T08:45:06.921Z,23.46
2022-09-07T08:50:14.072Z,23.92
2022-09-07T08:55:21.050Z,24.14
2022-09-07T09:00:28.432Z,24.12
2022-09-07T09:05:37.258Z,24.1
2022-09-07T09:10:46.198Z,24.58
2022-09-07T09:15:54.330Z,24.61
2022-09-07T09:21:03.417Z,24.86
2022-09-07T09:26:11.459Z,25.04
2022-09-07T09:31:18.618Z,24.88
2022-09-07T09:36:25.817Z,24.71
2022-09-07T09:41:34.267Z,24.76
2022-09-07T09:46:42.137Z,24.92
2022-09-07T09:51:50.263Z,25.26
2022-09-07T09:57:33.685Z,25.6
2022-09-07T10:02:49.384Z,25.58
2022-09-07T10:07:57.407Z,25.7
2022-09-07T10:13:05.368Z,25.82
2022-09-07T10:18:13.726Z,25.94
2022-09-07T15:27:00.717Z,20.4
2022-09-07T15:32:10.362Z,20.53
2022-09-07T15:37:18.201Z,20.68
2022-09-07T15:42:26.137Z,20.61
2022-09-07T15:47:33.713Z,20.56
2022-09-07T15:52:41.300Z,20.61
2022-09-07T15:57:49.020Z,20.75
2022-09-07T16:02:57.349Z,20.84
2022-09-07T16:08:04.852Z,20.79
2022-09-07T16:13:13.050Z,20.66
2022-09-07T16:18:20.809Z,20.54
2022-09-07T16:23:28.421Z,20.34
2022-09-07T16:28:36.070Z,20.22
2022-09-07T16:37:09.880Z,19.98
2022-09-07T16:42:15.313Z,19.79
2022-09-07T16:47:22.887Z,19.64
2022-09-07T16:52:29.705Z,19.54
2022-09-07T16:57:37.313Z,19.48
2022-09-07T17:02:44.830Z,19.38
2022-09-07T17:07:53.162Z,19.23
2022-09-07T17:13:01.191Z,19.08
2022-09-07T17:18:09.869Z,18.96
2022-09-07T17:23:17.339Z,18.83
2022-09-07T17:28:25.135Z,18.66
2022-09-07T17:33:33.038Z,18.5
2022-09-07T17:44:10.251Z,18.2
2022-09-07T17:49:17.659Z,18.08
2022-09-07T17:54:26.749Z,17.99
2022-09-07T17:59:33.978Z,17.92
2022-09-07T18:04:41.400Z,17.8
2022-09-07T18:09:48.993Z,17.71
2022-09-07T18:14:56.957Z,17.72
2022-09-07T18:20:04.101Z,17.67
2022-09-07T18:25:12.604Z,17.58
2022-09-07T18:30:21.205Z,17.49
2022-09-07T18:35:28.246Z,17.4
2022-09-07T18:40:35.419Z,17.28
2022-09-07T18:45:43.760Z,17.19
2022-09-07T18:51:05.849Z,17.17
2022-09-07T18:56:12.391Z,17.17
2022-09-07T19:01:19.293Z,17.16
2022-09-07T19:06:26.784Z,17.2
2022-09-07T19:11:34.626Z,17.17
2022-09-07T19:16:42.621Z,17.14
2022-09-07T19:21:50.502Z,17.12
2022-09-07T19:26:57.505Z,17.08
2022-09-07T19:32:05.427Z,17.01
2022-09-07T19:37:13.562Z,16.93
2022-09-07T19:42:21.742Z,16.86
2022-09-07T19:47:29.510Z,16.88
2022-09-07T19:52:37.356Z,16.79
2022-09-07T19:57:45.112Z,16.69
2022-09-07T20:02:52.989Z,16.61
2022-09-07T20:08:00.307Z,16.62
2022-09-07T20:13:08.187Z,16.64
2022-09-07T20:18:15.990Z,16.54
2022-09-07T20:23:23.401Z,16.46
2022-09-07T20:28:30.821Z,16.47
2022-09-07T20:33:37.882Z,16.44
2022-09-07T20:38:44.769Z,16.44
2022-09-07T20:43:52.215Z,16.46
2022-09-07T20:49:00.245Z,16.38
2022-09-07T20:54:08.159Z,16.35
2022-09-07T21:00:40.729Z,16.33
2022-09-07T21:05:46.429Z,16.33
2022-09-07T21:10:54.362Z,16.28
2022-09-07T21:16:01.536Z,16.33
2022-09-07T21:21:10.521Z,16.33
2022-09-07T21:26:19.654Z,16.32
2022-09-07T21:31:26.976Z,16.32
2022-09-07T21:36:34.180Z,16.32
2022-09-07T21:41:41.372Z,16.24
2022-09-07T21:46:49.299Z,16.22
2022-09-07T21:51:56.421Z,16.22
2022-09-07T21:57:04.255Z,16.14
2022-09-07T22:02:11.454Z,16.12
2022-09-07T22:07:19.312Z,16.15
2022-09-07T22:12:26.803Z,16.08
2022-09-07T22:17:42.298Z,16.03
2022-09-07T22:22:48.551Z,15.93
2022-09-07T22:27:58.092Z,15.9
2022-09-07T22:33:07.654Z,15.86
2022-09-07T22:38:15.303Z,15.92
2022-09-07T22:43:22.565Z,15.85
2022-09-07T22:48:29.690Z,15.76
2022-09-07T22:53:37.535Z,15.68
2022-09-07T22:58:45.308Z,15.74
2022-09-07T23:04:12.705Z,15.76
2022-09-07T23:04:15.651Z,15.76
2022-09-07T23:09:24.207Z,15.74
2022-09-07T23:14:32.649Z,15.65
2022-09-07T23:19:40.411Z,15.65
2022-09-07T23:24:48.302Z,15.69
2022-09-07T23:29:55.698Z,15.64
2022-09-07T23:35:02.698Z,15.58
2022-09-07T23:40:10.179Z,15.59
2022-09-07T23:45:24.293Z,15.61
2022-09-07T23:50:32.579Z,15.58
2022-09-07T23:55:41.605Z,15.54
